Seabulk Challenge — KNJL — position and weather

sailwx.info

Track history (hours):
 
Tides and Currents Weather Stations Pressure Air Temp Water Temp Dewpoint Dewpoint Depression Visibility Wind Speed Wind Dir Waves Ship Positions

Seabulk Challenge

More information available from US FCC via Universal Licensing System and Coast Guard Vessel Documentation Center.

Last reported at 2014-Jul-29 06:34 UTC. Time now 2014-Jul-31 05:31 UTC.
Position N 27°51' W 097°04'.

Length 192 m; draft 11.2 m.

Type: Tanker. MMSI: 303104000.

Date/timePositionNaut miles runAvg speedWind from/ knotsBaromVisibWave heightAir tempDewpointWater temp
2014-Jul-29 06:34N 27°51' W 097°04'  
2014-Jul-25 01:33N 25°34' W 080°02'1010.3
2014-Jul-25 00:33N 25°45' W 080°01'1110.6
2014-Jul-24 23:33N 25°55' W 079°60'1111.0
2014-Jul-24 22:33N 26°06' W 079°59'1111.4
2014-Jul-24 21:34N 26°18' W 079°58'1110.8
2014-Jul-24 20:34N 26°28' W 079°57'1110.6
2014-Jul-24 19:34N 26°39' W 079°57'1010.2
2014-Jul-24 18:34N 26°49' W 079°56'1010.4
2014-Jul-24 17:34N 26°60' W 079°56'61212.2
2014-Jul-22 15:13N 36°14' W 074°53'1614.5
2014-Jul-22 14:08N 36°30' W 074°48'5214.5
2014-Jul-22 10:32N 37°20' W 074°34'1414.7
2014-Jul-22 09:33N 37°35' W 074°30'1414.2
2014-Jul-22 08:33N 37°48' W 074°26'1414.2
2014-Jul-22 07:33N 38°02' W 074°22'2113.9
2014-Jul-22 06:05N 38°22' W 074°15'713.9
2014-Jul-22 05:33N 38°29' W 074°12'1513.9
2014-Jul-22 04:30N 38°43' W 074°08'1313.9
2014-Jul-22 03:33N 38°56' W 074°05'1513.6
2014-Jul-22 02:28N 39°10' W 074°00'1313.6
2014-Jul-22 01:33N 39°23' W 073°57'1313.4
2014-Jul-22 00:33N 39°36' W 073°54'1313.2
2014-Jul-21 23:33N 39°49' W 073°53'1413.5
2014-Jul-21 22:33N 40°02' W 073°51'1413.3
2014-Jul-21 21:30N 40°16' W 073°50'1212.7
2014-Jul-21 20:33N 40°28' W 073°55'2 8.6
2014-Jul-21 20:18N 40°28' W 073°58'1113.6
2014-Jul-21 19:31N 40°30' W 074°12'4 4.0
2014-Jul-21 18:32N 40°34' W 074°13'4 0.2
2014-Jul-20 20:17N 40°38' W 074°12'3 3.9
2014-Jul-20 19:33N 40°39' W 074°09'6 5.5
2014-Jul-20 18:33N 40°36' W 074°02'7 6.8
2014-Jul-20 17:33N 40°30' W 073°57'8 7.6
2014-Jul-20 16:33N 40°25' W 073°49'26 3.5
2014-Jul-20 09:10N 40°00' W 073°44'712.1
2014-Jul-20 08:33N 39°53' W 073°43'1212.1
2014-Jul-20 07:33N 39°41' W 073°42'1612.2
2014-Jul-20 06:14N 39°25' W 073°45'  
Track history (hours):
 
Tides and Currents Weather Stations Pressure Air Temp Water Temp Dewpoint Dewpoint Depression Visibility Wind Speed Wind Dir Waves Ship Positions

Seabulk Challenge

More information available from US FCC via Universal Licensing System and Coast Guard Vessel Documentation Center.

Last reported at 2014-Jul-29 06:34 UTC. Time now 2014-Jul-31 05:31 UTC.
Position N 27°51' W 097°04'.

Length 192 m; draft 11.2 m.

Type: Tanker. MMSI: 303104000.

Date/timePositionNaut miles runAvg speedWind from/ knotsBaromVisibWave heightAir tempDewpointWater temp
2014-Jul-29 06:34N 27°51' W 097°04'  
2014-Jul-25 01:33N 25°34' W 080°02'1010.3
2014-Jul-25 00:33N 25°45' W 080°01'1110.6
2014-Jul-24 23:33N 25°55' W 079°60'1111.0
2014-Jul-24 22:33N 26°06' W 079°59'1111.4
2014-Jul-24 21:34N 26°18' W 079°58'1110.8
2014-Jul-24 20:34N 26°28' W 079°57'1110.6
2014-Jul-24 19:34N 26°39' W 079°57'1010.2
2014-Jul-24 18:34N 26°49' W 079°56'1010.4
2014-Jul-24 17:34N 26°60' W 079°56'61212.2
2014-Jul-22 15:13N 36°14' W 074°53'1614.5
2014-Jul-22 14:08N 36°30' W 074°48'5214.5
2014-Jul-22 10:32N 37°20' W 074°34'1414.7
2014-Jul-22 09:33N 37°35' W 074°30'1414.2
2014-Jul-22 08:33N 37°48' W 074°26'1414.2
2014-Jul-22 07:33N 38°02' W 074°22'2113.9
2014-Jul-22 06:05N 38°22' W 074°15'713.9
2014-Jul-22 05:33N 38°29' W 074°12'1513.9
2014-Jul-22 04:30N 38°43' W 074°08'1313.9
2014-Jul-22 03:33N 38°56' W 074°05'1513.6
2014-Jul-22 02:28N 39°10' W 074°00'1313.6
2014-Jul-22 01:33N 39°23' W 073°57'1313.4
2014-Jul-22 00:33N 39°36' W 073°54'1313.2
2014-Jul-21 23:33N 39°49' W 073°53'1413.5
2014-Jul-21 22:33N 40°02' W 073°51'1413.3
2014-Jul-21 21:30N 40°16' W 073°50'1212.7
2014-Jul-21 20:33N 40°28' W 073°55'2 8.6
2014-Jul-21 20:18N 40°28' W 073°58'1113.6
2014-Jul-21 19:31N 40°30' W 074°12'4 4.0
2014-Jul-21 18:32N 40°34' W 074°13'4 0.2
2014-Jul-20 20:17N 40°38' W 074°12'3 3.9
2014-Jul-20 19:33N 40°39' W 074°09'6 5.5
2014-Jul-20 18:33N 40°36' W 074°02'7 6.8
2014-Jul-20 17:33N 40°30' W 073°57'8 7.6
2014-Jul-20 16:33N 40°25' W 073°49'26 3.5
2014-Jul-20 09:10N 40°00' W 073°44'712.1
2014-Jul-20 08:33N 39°53' W 073°43'1212.1
2014-Jul-20 07:33N 39°41' W 073°42'1612.2
2014-Jul-20 06:14N 39°25' W 073°45'  

Dump ship's entire track history